Springhill, Louisiana
Current Conditions -  °F | °C
As of 3:15 PM on Wednesday 26 Nov 2014 (Local Time) from KMNE Reporting Station
Clear Clear  
Wind Chill: 66°   Ceiling: Unl
Heat Index: 66°   Visibility: 10mi
Dew Point: 32°   Wind: 9mph
Humidity: 28%   Direction: 280°W
Pressure: 30.12"   Gusts: 18mph
Location:  33.01°N, 93.47°W
Report Text: KMNE 262115Z AUTO 28008G16KT 10SM CLR 19/00 A3012 RMK AO2
Loading
Personal Weather Stations






























Interactive Weather Map New forecast layout! Learn more

10-Day Weather Forecast

Advertisements
Track Severe Weather on mobile